sensor_id;sensor_type;location;lat;lon;timestamp;P1;durP1;ratioP1;P2;durP2;ratioP2
13493;SDS011;6819;50.886;4.332;2024-01-10T00:02:04;16.88;;;4.32;;
13493;SDS011;6819;50.886;4.332;2024-01-10T00:04:30;8.95;;;3.67;;
13493;SDS011;6819;50.886;4.332;2024-01-10T00:06:56;6.50;;;3.40;;
13493;SDS011;6819;50.886;4.332;2024-01-10T00:09:22;8.65;;;4.20;;
13493;SDS011;6819;50.886;4.332;2024-01-10T00:11:48;8.52;;;4.43;;
13493;SDS011;6819;50.886;4.332;2024-01-10T00:14:14;8.20;;;3.72;;
13493;SDS011;6819;50.886;4.332;2024-01-10T00:16:41;7.97;;;3.33;;
13493;SDS011;6819;50.886;4.332;2024-01-10T00:19:07;8.73;;;3.85;;
13493;SDS011;6819;50.886;4.332;2024-01-10T00:21:33;9.98;;;3.78;;
13493;SDS011;6819;50.886;4.332;2024-01-10T00:24:01;8.27;;;3.15;;
13493;SDS011;6819;50.886;4.332;2024-01-10T00:26:27;8.73;;;3.45;;
13493;SDS011;6819;50.886;4.332;2024-01-10T00:28:53;9.85;;;4.00;;
13493;SDS011;6819;50.886;4.332;2024-01-10T00:31:19;8.75;;;3.47;;
13493;SDS011;6819;50.886;4.332;2024-01-10T00:33:45;7.20;;;3.17;;
13493;SDS011;6819;50.886;4.332;2024-01-10T00:36:11;7.93;;;3.70;;
13493;SDS011;6819;50.886;4.332;2024-01-10T00:38:37;8.30;;;3.28;;
13493;SDS011;6819;50.886;4.332;2024-01-10T00:41:03;15.77;;;4.45;;
13493;SDS011;6819;50.886;4.332;2024-01-10T00:43:29;6.05;;;3.10;;
13493;SDS011;6819;50.886;4.332;2024-01-10T00:45:55;9.40;;;3.70;;
13493;SDS011;6819;50.886;4.332;2024-01-10T00:48:21;7.55;;;3.13;;
13493;SDS011;6819;50.886;4.332;2024-01-10T00:50:47;7.22;;;3.83;;
13493;SDS011;6819;50.886;4.332;2024-01-10T00:53:13;6.20;;;2.80;;
13493;SDS011;6819;50.886;4.332;2024-01-10T00:55:39;10.75;;;3.72;;
13493;SDS011;6819;50.886;4.332;2024-01-10T00:58:05;5.20;;;3.15;;
13493;SDS011;6819;50.886;4.332;2024-01-10T01:00:31;11.02;;;3.72;;
13493;SDS011;6819;50.886;4.332;2024-01-10T01:02:58;10.15;;;3.50;;
13493;SDS011;6819;50.886;4.332;2024-01-10T01:05:24;8.68;;;3.55;;
13493;SDS011;6819;50.886;4.332;2024-01-10T01:07:50;9.10;;;3.78;;
13493;SDS011;6819;50.886;4.332;2024-01-10T01:10:16;7.07;;;3.10;;
13493;SDS011;6819;50.886;4.332;2024-01-10T01:12:42;5.85;;;3.47;;
13493;SDS011;6819;50.886;4.332;2024-01-10T01:15:08;5.43;;;3.05;;
13493;SDS011;6819;50.886;4.332;2024-01-10T01:17:34;10.85;;;3.47;;
13493;SDS011;6819;50.886;4.332;2024-01-10T01:20:00;8.60;;;4.60;;
13493;SDS011;6819;50.886;4.332;2024-01-10T01:22:29;7.15;;;3.83;;
13493;SDS011;6819;50.886;4.332;2024-01-10T01:24:56;8.32;;;3.53;;
13493;SDS011;6819;50.886;4.332;2024-01-10T01:27:22;9.40;;;3.03;;
13493;SDS011;6819;50.886;4.332;2024-01-10T01:29:48;6.78;;;3.72;;
13493;SDS011;6819;50.886;4.332;2024-01-10T01:32:15;8.82;;;4.00;;
13493;SDS011;6819;50.886;4.332;2024-01-10T01:34:41;7.72;;;3.45;;
13493;SDS011;6819;50.886;4.332;2024-01-10T01:37:07;10.27;;;4.32;;
13493;SDS011;6819;50.886;4.332;2024-01-10T01:39:33;6.95;;;3.15;;
13493;SDS011;6819;50.886;4.332;2024-01-10T01:41:59;5.90;;;3.25;;
13493;SDS011;6819;50.886;4.332;2024-01-10T01:44:25;6.78;;;3.13;;
13493;SDS011;6819;50.886;4.332;2024-01-10T01:46:51;9.85;;;3.75;;
13493;SDS011;6819;50.886;4.332;2024-01-10T01:49:17;10.60;;;3.88;;
13493;SDS011;6819;50.886;4.332;2024-01-10T01:51:43;7.68;;;2.97;;
13493;SDS011;6819;50.886;4.332;2024-01-10T01:54:09;5.15;;;2.97;;
13493;SDS011;6819;50.886;4.332;2024-01-10T01:56:36;11.55;;;3.15;;
13493;SDS011;6819;50.886;4.332;2024-01-10T01:59:03;9.43;;;3.35;;
13493;SDS011;6819;50.886;4.332;2024-01-10T02:01:29;8.82;;;3.70;;
13493;SDS011;6819;50.886;4.332;2024-01-10T02:03:56;12.18;;;3.83;;
13493;SDS011;6819;50.886;4.332;2024-01-10T02:06:22;9.80;;;4.07;;
13493;SDS011;6819;50.886;4.332;2024-01-10T02:08:48;4.82;;;3.28;;
13493;SDS011;6819;50.886;4.332;2024-01-10T02:11:14;7.10;;;3.42;;
13493;SDS011;6819;50.886;4.332;2024-01-10T02:13:41;8.07;;;3.63;;
13493;SDS011;6819;50.886;4.332;2024-01-10T02:16:07;13.95;;;4.10;;
13493;SDS011;6819;50.886;4.332;2024-01-10T02:18:34;7.97;;;3.83;;
13493;SDS011;6819;50.886;4.332;2024-01-10T02:21:00;11.13;;;3.92;;
13493;SDS011;6819;50.886;4.332;2024-01-10T02:23:26;8.75;;;3.92;;
13493;SDS011;6819;50.886;4.332;2024-01-10T02:25:52;8.43;;;3.85;;
13493;SDS011;6819;50.886;4.332;2024-01-10T02:28:18;10.40;;;4.80;;
13493;SDS011;6819;50.886;4.332;2024-01-10T02:30:44;7.40;;;3.25;;
13493;SDS011;6819;50.886;4.332;2024-01-10T02:33:12;7.15;;;3.20;;
13493;SDS011;6819;50.886;4.332;2024-01-10T02:35:38;6.40;;;3.30;;
13493;SDS011;6819;50.886;4.332;2024-01-10T02:38:04;6.72;;;3.63;;
13493;SDS011;6819;50.886;4.332;2024-01-10T02:40:30;5.65;;;2.92;;
13493;SDS011;6819;50.886;4.332;2024-01-10T02:42:56;8.93;;;3.17;;
13493;SDS011;6819;50.886;4.332;2024-01-10T02:45:22;8.43;;;3.10;;
13493;SDS011;6819;50.886;4.332;2024-01-10T02:47:48;5.93;;;2.95;;
13493;SDS011;6819;50.886;4.332;2024-01-10T02:50:14;8.05;;;3.78;;
13493;SDS011;6819;50.886;4.332;2024-01-10T02:52:41;7.50;;;3.30;;
13493;SDS011;6819;50.886;4.332;2024-01-10T02:55:07;6.47;;;4.13;;
13493;SDS011;6819;50.886;4.332;2024-01-10T02:57:33;6.78;;;3.25;;
13493;SDS011;6819;50.886;4.332;2024-01-10T02:59:59;7.75;;;4.28;;
13493;SDS011;6819;50.886;4.332;2024-01-10T03:02:25;7.55;;;3.60;;
13493;SDS011;6819;50.886;4.332;2024-01-10T03:04:51;7.05;;;3.50;;
13493;SDS011;6819;50.886;4.332;2024-01-10T03:07:17;7.07;;;3.88;;
13493;SDS011;6819;50.886;4.332;2024-01-10T03:09:43;6.97;;;3.42;;
13493;SDS011;6819;50.886;4.332;2024-01-10T03:12:10;11.98;;;4.10;;
13493;SDS011;6819;50.886;4.332;2024-01-10T03:14:37;9.50;;;3.90;;
13493;SDS011;6819;50.886;4.332;2024-01-10T03:17:03;6.55;;;3.40;;
13493;SDS011;6819;50.886;4.332;2024-01-10T03:19:29;5.82;;;2.80;;
13493;SDS011;6819;50.886;4.332;2024-01-10T03:21:55;9.95;;;3.30;;
13493;SDS011;6819;50.886;4.332;2024-01-10T03:24:21;6.13;;;3.42;;
13493;SDS011;6819;50.886;4.332;2024-01-10T03:26:49;6.93;;;3.17;;
13493;SDS011;6819;50.886;4.332;2024-01-10T03:29:15;8.20;;;3.22;;
13493;SDS011;6819;50.886;4.332;2024-01-10T03:31:41;10.48;;;4.60;;
13493;SDS011;6819;50.886;4.332;2024-01-10T03:34:07;7.78;;;3.72;;
13493;SDS011;6819;50.886;4.332;2024-01-10T03:36:33;6.40;;;3.63;;
13493;SDS011;6819;50.886;4.332;2024-01-10T03:38:59;7.90;;;3.58;;
13493;SDS011;6819;50.886;4.332;2024-01-10T03:41:25;5.75;;;3.05;;
13493;SDS011;6819;50.886;4.332;2024-01-10T03:43:51;8.23;;;4.25;;
13493;SDS011;6819;50.886;4.332;2024-01-10T03:46:18;10.10;;;3.42;;
13493;SDS011;6819;50.886;4.332;2024-01-10T03:48:44;5.90;;;2.95;;
13493;SDS011;6819;50.886;4.332;2024-01-10T03:51:14;12.95;;;3.78;;
13493;SDS011;6819;50.886;4.332;2024-01-10T03:53:40;7.90;;;3.72;;
13493;SDS011;6819;50.886;4.332;2024-01-10T03:56:06;10.40;;;3.30;;
13493;SDS011;6819;50.886;4.332;2024-01-10T03:58:32;7.07;;;3.35;;
13493;SDS011;6819;50.886;4.332;2024-01-10T04:00:58;9.55;;;3.97;;
13493;SDS011;6819;50.886;4.332;2024-01-10T04:03:24;6.72;;;3.20;;
13493;SDS011;6819;50.886;4.332;2024-01-10T04:05:50;7.22;;;3.47;;
13493;SDS011;6819;50.886;4.332;2024-01-10T04:08:16;8.63;;;3.03;;
13493;SDS011;6819;50.886;4.332;2024-01-10T04:10:42;8.45;;;3.67;;
13493;SDS011;6819;50.886;4.332;2024-01-10T04:13:08;7.63;;;3.30;;
13493;SDS011;6819;50.886;4.332;2024-01-10T04:15:34;6.97;;;3.97;;
13493;SDS011;6819;50.886;4.332;2024-01-10T04:18:00;6.28;;;3.15;;
13493;SDS011;6819;50.886;4.332;2024-01-10T04:20:26;8.77;;;3.70;;
13493;SDS011;6819;50.886;4.332;2024-01-10T04:22:52;5.97;;;3.22;;
13493;SDS011;6819;50.886;4.332;2024-01-10T04:25:18;8.85;;;3.50;;
13493;SDS011;6819;50.886;4.332;2024-01-10T04:27:45;8.20;;;3.63;;
13493;SDS011;6819;50.886;4.332;2024-01-10T04:30:12;10.88;;;4.43;;
13493;SDS011;6819;50.886;4.332;2024-01-10T04:32:38;6.72;;;3.90;;
13493;SDS011;6819;50.886;4.332;2024-01-10T04:35:04;9.30;;;3.53;;
13493;SDS011;6819;50.886;4.332;2024-01-10T04:37:30;7.97;;;3.17;;
13493;SDS011;6819;50.886;4.332;2024-01-10T04:39:56;7.60;;;3.40;;
13493;SDS011;6819;50.886;4.332;2024-01-10T04:42:22;4.70;;;2.95;;
13493;SDS011;6819;50.886;4.332;2024-01-10T04:44:48;7.10;;;3.53;;
13493;SDS011;6819;50.886;4.332;2024-01-10T04:47:15;13.80;;;3.88;;
13493;SDS011;6819;50.886;4.332;2024-01-10T04:49:41;10.65;;;4.45;;
13493;SDS011;6819;50.886;4.332;2024-01-10T04:52:07;6.10;;;2.95;;
13493;SDS011;6819;50.886;4.332;2024-01-10T04:54:33;8.95;;;3.75;;
13493;SDS011;6819;50.886;4.332;2024-01-10T04:56:59;9.35;;;3.70;;
13493;SDS011;6819;50.886;4.332;2024-01-10T04:59:25;8.90;;;3.38;;
13493;SDS011;6819;50.886;4.332;2024-01-10T05:01:51;4.40;;;3.00;;
13493;SDS011;6819;50.886;4.332;2024-01-10T05:04:17;12.27;;;4.10;;
13493;SDS011;6819;50.886;4.332;2024-01-10T05:06:43;9.10;;;4.20;;
13493;SDS011;6819;50.886;4.332;2024-01-10T05:09:09;10.07;;;3.80;;
13493;SDS011;6819;50.886;4.332;2024-01-10T05:11:35;14.48;;;3.90;;
13493;SDS011;6819;50.886;4.332;2024-01-10T05:14:02;10.05;;;4.03;;
13493;SDS011;6819;50.886;4.332;2024-01-10T05:16:28;6.88;;;2.95;;
13493;SDS011;6819;50.886;4.332;2024-01-10T05:18:54;5.15;;;3.05;;
13493;SDS011;6819;50.886;4.332;2024-01-10T05:21:20;6.70;;;2.72;;
13493;SDS011;6819;50.886;4.332;2024-01-10T05:23:46;10.18;;;3.70;;
13493;SDS011;6819;50.886;4.332;2024-01-10T05:26:12;7.78;;;3.38;;
13493;SDS011;6819;50.886;4.332;2024-01-10T05:28:38;4.90;;;2.83;;
13493;SDS011;6819;50.886;4.332;2024-01-10T05:31:04;8.63;;;3.08;;
13493;SDS011;6819;50.886;4.332;2024-01-10T05:33:30;4.55;;;2.30;;
13493;SDS011;6819;50.886;4.332;2024-01-10T05:35:57;7.97;;;3.67;;
13493;SDS011;6819;50.886;4.332;2024-01-10T05:38:23;8.25;;;3.28;;
13493;SDS011;6819;50.886;4.332;2024-01-10T05:40:49;8.07;;;3.83;;
13493;SDS011;6819;50.886;4.332;2024-01-10T05:43:16;11.48;;;3.92;;
13493;SDS011;6819;50.886;4.332;2024-01-10T05:45:42;9.25;;;4.13;;
13493;SDS011;6819;50.886;4.332;2024-01-10T05:48:08;9.00;;;3.63;;
13493;SDS011;6819;50.886;4.332;2024-01-10T05:50:34;5.05;;;3.13;;
13493;SDS011;6819;50.886;4.332;2024-01-10T05:53:00;10.27;;;3.17;;
13493;SDS011;6819;50.886;4.332;2024-01-10T05:55:27;7.10;;;3.35;;
13493;SDS011;6819;50.886;4.332;2024-01-10T05:57:53;5.38;;;2.95;;
13493;SDS011;6819;50.886;4.332;2024-01-10T06:00:19;9.02;;;4.10;;
13493;SDS011;6819;50.886;4.332;2024-01-10T06:02:46;6.25;;;3.33;;
13493;SDS011;6819;50.886;4.332;2024-01-10T06:05:12;9.68;;;3.85;;
13493;SDS011;6819;50.886;4.332;2024-01-10T06:07:38;9.02;;;3.25;;
13493;SDS011;6819;50.886;4.332;2024-01-10T06:10:06;8.45;;;2.95;;
13493;SDS011;6819;50.886;4.332;2024-01-10T06:12:32;8.48;;;3.22;;
13493;SDS011;6819;50.886;4.332;2024-01-10T06:14:59;8.75;;;3.10;;
13493;SDS011;6819;50.886;4.332;2024-01-10T06:17:25;5.90;;;3.20;;
13493;SDS011;6819;50.886;4.332;2024-01-10T06:19:51;10.52;;;3.40;;
13493;SDS011;6819;50.886;4.332;2024-01-10T06:22:17;9.40;;;3.80;;
13493;SDS011;6819;50.886;4.332;2024-01-10T06:24:43;6.80;;;4.00;;
13493;SDS011;6819;50.886;4.332;2024-01-10T06:27:09;10.93;;;4.50;;
13493;SDS011;6819;50.886;4.332;2024-01-10T06:29:36;5.78;;;2.70;;
13493;SDS011;6819;50.886;4.332;2024-01-10T06:32:05;9.98;;;3.00;;
13493;SDS011;6819;50.886;4.332;2024-01-10T06:34:32;4.60;;;2.45;;
13493;SDS011;6819;50.886;4.332;2024-01-10T06:36:58;10.05;;;3.13;;
13493;SDS011;6819;50.886;4.332;2024-01-10T06:39:24;12.07;;;2.63;;
13493;SDS011;6819;50.886;4.332;2024-01-10T06:41:51;9.30;;;3.42;;
13493;SDS011;6819;50.886;4.332;2024-01-10T06:44:17;7.32;;;3.35;;
13493;SDS011;6819;50.886;4.332;2024-01-10T06:46:43;7.22;;;2.72;;
13493;SDS011;6819;50.886;4.332;2024-01-10T06:49:09;12.18;;;3.67;;
13493;SDS011;6819;50.886;4.332;2024-01-10T06:51:35;14.23;;;2.85;;
13493;SDS011;6819;50.886;4.332;2024-01-10T06:54:01;8.88;;;3.08;;
13493;SDS011;6819;50.886;4.332;2024-01-10T06:56:31;10.02;;;4.55;;
13493;SDS011;6819;50.886;4.332;2024-01-10T06:58:58;5.22;;;3.08;;
13493;SDS011;6819;50.886;4.332;2024-01-10T07:01:24;7.72;;;3.17;;
13493;SDS011;6819;50.886;4.332;2024-01-10T07:03:51;6.60;;;3.35;;
13493;SDS011;6819;50.886;4.332;2024-01-10T07:06:17;8.23;;;4.03;;
13493;SDS011;6819;50.886;4.332;2024-01-10T07:08:43;5.65;;;2.97;;
13493;SDS011;6819;50.886;4.332;2024-01-10T07:11:10;6.03;;;3.00;;
13493;SDS011;6819;50.886;4.332;2024-01-10T07:13:40;7.85;;;3.33;;
13493;SDS011;6819;50.886;4.332;2024-01-10T07:16:06;6.70;;;4.00;;
13493;SDS011;6819;50.886;4.332;2024-01-10T07:18:32;7.10;;;3.55;;
13493;SDS011;6819;50.886;4.332;2024-01-10T07:20:58;9.10;;;3.45;;
13493;SDS011;6819;50.886;4.332;2024-01-10T07:23:24;5.05;;;2.75;;
13493;SDS011;6819;50.886;4.332;2024-01-10T07:25:50;7.03;;;4.03;;
13493;SDS011;6819;50.886;4.332;2024-01-10T07:28:17;6.82;;;3.40;;
13493;SDS011;6819;50.886;4.332;2024-01-10T07:30:43;11.07;;;3.65;;
13493;SDS011;6819;50.886;4.332;2024-01-10T07:33:09;7.50;;;3.13;;
13493;SDS011;6819;50.886;4.332;2024-01-10T07:35:36;7.80;;;3.65;;
13493;SDS011;6819;50.886;4.332;2024-01-10T07:38:03;7.13;;;3.20;;
13493;SDS011;6819;50.886;4.332;2024-01-10T07:40:29;9.07;;;3.38;;
13493;SDS011;6819;50.886;4.332;2024-01-10T07:42:56;10.10;;;3.30;;
13493;SDS011;6819;50.886;4.332;2024-01-10T07:45:22;7.57;;;3.65;;
13493;SDS011;6819;50.886;4.332;2024-01-10T07:47:48;6.18;;;3.35;;
13493;SDS011;6819;50.886;4.332;2024-01-10T07:50:14;6.32;;;4.10;;
13493;SDS011;6819;50.886;4.332;2024-01-10T07:52:40;5.18;;;2.70;;
13493;SDS011;6819;50.886;4.332;2024-01-10T07:55:06;8.13;;;3.38;;
13493;SDS011;6819;50.886;4.332;2024-01-10T07:57:33;11.60;;;3.50;;
13493;SDS011;6819;50.886;4.332;2024-01-10T08:00:00;9.30;;;3.63;;
13493;SDS011;6819;50.886;4.332;2024-01-10T08:02:28;7.35;;;3.55;;
13493;SDS011;6819;50.886;4.332;2024-01-10T08:04:59;7.53;;;3.70;;
13493;SDS011;6819;50.886;4.332;2024-01-10T08:07:25;11.57;;;4.05;;
13493;SDS011;6819;50.886;4.332;2024-01-10T08:09:51;8.27;;;3.70;;
13493;SDS011;6819;50.886;4.332;2024-01-10T08:12:17;7.18;;;3.35;;
13493;SDS011;6819;50.886;4.332;2024-01-10T08:14:44;17.75;;;4.03;;
13493;SDS011;6819;50.886;4.332;2024-01-10T08:17:11;8.18;;;2.97;;
13493;SDS011;6819;50.886;4.332;2024-01-10T08:19:37;9.48;;;3.65;;
13493;SDS011;6819;50.886;4.332;2024-01-10T08:22:03;9.25;;;2.88;;
13493;SDS011;6819;50.886;4.332;2024-01-10T08:24:29;8.82;;;3.60;;
13493;SDS011;6819;50.886;4.332;2024-01-10T08:26:55;5.15;;;3.08;;
13493;SDS011;6819;50.886;4.332;2024-01-10T08:29:21;8.80;;;3.30;;
13493;SDS011;6819;50.886;4.332;2024-01-10T08:31:47;8.40;;;4.18;;
13493;SDS011;6819;50.886;4.332;2024-01-10T08:34:14;6.93;;;4.82;;
13493;SDS011;6819;50.886;4.332;2024-01-10T08:36:40;12.88;;;4.93;;
13493;SDS011;6819;50.886;4.332;2024-01-10T08:39:06;15.13;;;3.63;;
13493;SDS011;6819;50.886;4.332;2024-01-10T08:41:32;10.52;;;3.65;;
13493;SDS011;6819;50.886;4.332;2024-01-10T08:43:59;8.35;;;3.55;;
13493;SDS011;6819;50.886;4.332;2024-01-10T08:46:25;9.45;;;4.47;;
13493;SDS011;6819;50.886;4.332;2024-01-10T08:48:51;13.80;;;4.90;;
13493;SDS011;6819;50.886;4.332;2024-01-10T08:51:17;15.00;;;5.13;;
13493;SDS011;6819;50.886;4.332;2024-01-10T08:53:43;10.80;;;4.47;;
13493;SDS011;6819;50.886;4.332;2024-01-10T08:56:09;7.88;;;3.90;;
13493;SDS011;6819;50.886;4.332;2024-01-10T08:58:36;13.77;;;4.30;;
13493;SDS011;6819;50.886;4.332;2024-01-10T09:01:05;8.70;;;3.78;;
13493;SDS011;6819;50.886;4.332;2024-01-10T09:03:33;11.60;;;4.65;;
13493;SDS011;6819;50.886;4.332;2024-01-10T09:05:59;6.82;;;3.53;;
13493;SDS011;6819;50.886;4.332;2024-01-10T09:08:25;7.45;;;4.03;;
13493;SDS011;6819;50.886;4.332;2024-01-10T09:10:51;10.77;;;4.43;;
13493;SDS011;6819;50.886;4.332;2024-01-10T09:13:17;6.10;;;3.78;;
13493;SDS011;6819;50.886;4.332;2024-01-10T09:15:43;14.02;;;4.82;;
13493;SDS011;6819;50.886;4.332;2024-01-10T09:18:09;7.18;;;3.58;;
13493;SDS011;6819;50.886;4.332;2024-01-10T09:20:36;7.40;;;3.83;;
13493;SDS011;6819;50.886;4.332;2024-01-10T09:23:03;9.50;;;3.83;;
13493;SDS011;6819;50.886;4.332;2024-01-10T09:25:29;11.63;;;4.35;;
13493;SDS011;6819;50.886;4.332;2024-01-10T09:27:55;7.65;;;3.75;;
13493;SDS011;6819;50.886;4.332;2024-01-10T09:30:22;11.10;;;5.05;;
13493;SDS011;6819;50.886;4.332;2024-01-10T09:32:49;9.82;;;4.22;;
13493;SDS011;6819;50.886;4.332;2024-01-10T09:35:15;11.95;;;4.43;;
13493;SDS011;6819;50.886;4.332;2024-01-10T09:37:43;14.30;;;4.50;;
13493;SDS011;6819;50.886;4.332;2024-01-10T09:40:10;11.38;;;4.20;;
13493;SDS011;6819;50.886;4.332;2024-01-10T09:42:38;15.63;;;5.50;;
13493;SDS011;6819;50.886;4.332;2024-01-10T09:45:04;10.23;;;4.68;;
13493;SDS011;6819;50.886;4.332;2024-01-10T09:47:31;10.40;;;4.30;;
13493;SDS011;6819;50.886;4.332;2024-01-10T09:49:58;14.63;;;4.35;;
13493;SDS011;6819;50.886;4.332;2024-01-10T09:52:27;11.75;;;5.03;;
13493;SDS011;6819;50.886;4.332;2024-01-10T09:54:53;12.15;;;5.10;;
13493;SDS011;6819;50.886;4.332;2024-01-10T09:57:21;8.48;;;4.30;;
13493;SDS011;6819;50.886;4.332;2024-01-10T09:59:50;11.30;;;4.55;;
13493;SDS011;6819;50.886;4.332;2024-01-10T10:02:16;12.25;;;5.35;;
13493;SDS011;6819;50.886;4.332;2024-01-10T10:04:49;8.10;;;4.57;;
13493;SDS011;6819;50.886;4.332;2024-01-10T10:07:20;10.40;;;4.35;;
13493;SDS011;6819;50.886;4.332;2024-01-10T10:09:46;12.80;;;4.30;;
13493;SDS011;6819;50.886;4.332;2024-01-10T10:12:12;10.93;;;4.68;;
13493;SDS011;6819;50.886;4.332;2024-01-10T10:14:38;9.77;;;4.25;;
13493;SDS011;6819;50.886;4.332;2024-01-10T10:17:16;14.38;;;5.10;;
13493;SDS011;6819;50.886;4.332;2024-01-10T10:19:43;11.95;;;4.47;;
13493;SDS011;6819;50.886;4.332;2024-01-10T10:22:10;14.10;;;6.05;;
13493;SDS011;6819;50.886;4.332;2024-01-10T10:24:36;11.95;;;4.65;;
13493;SDS011;6819;50.886;4.332;2024-01-10T10:27:12;11.43;;;4.95;;
13493;SDS011;6819;50.886;4.332;2024-01-10T10:29:39;9.18;;;5.20;;
13493;SDS011;6819;50.886;4.332;2024-01-10T10:32:05;12.85;;;5.72;;
13493;SDS011;6819;50.886;4.332;2024-01-10T10:34:33;13.13;;;5.03;;
13493;SDS011;6819;50.886;4.332;2024-01-10T10:37:00;13.15;;;5.93;;
13493;SDS011;6819;50.886;4.332;2024-01-10T10:39:27;10.50;;;4.50;;
13493;SDS011;6819;50.886;4.332;2024-01-10T10:41:53;13.77;;;5.28;;
13493;SDS011;6819;50.886;4.332;2024-01-10T10:44:19;12.90;;;5.55;;
13493;SDS011;6819;50.886;4.332;2024-01-10T10:46:49;23.85;;;6.22;;
13493;SDS011;6819;50.886;4.332;2024-01-10T10:49:18;10.73;;;5.18;;
13493;SDS011;6819;50.886;4.332;2024-01-10T10:51:46;12.45;;;4.95;;
13493;SDS011;6819;50.886;4.332;2024-01-10T10:54:13;11.07;;;5.78;;
13493;SDS011;6819;50.886;4.332;2024-01-10T10:56:40;16.58;;;6.28;;
13493;SDS011;6819;50.886;4.332;2024-01-10T10:59:07;16.35;;;6.20;;
13493;SDS011;6819;50.886;4.332;2024-01-10T11:01:34;12.27;;;5.47;;
13493;SDS011;6819;50.886;4.332;2024-01-10T11:04:00;12.82;;;6.00;;
13493;SDS011;6819;50.886;4.332;2024-01-10T11:06:27;12.13;;;5.68;;
13493;SDS011;6819;50.886;4.332;2024-01-10T11:08:56;12.23;;;5.55;;
13493;SDS011;6819;50.886;4.332;2024-01-10T11:24:26;17.65;;;6.78;;
13493;SDS011;6819;50.886;4.332;2024-01-10T11:27:10;11.98;;;5.85;;
13493;SDS011;6819;50.886;4.332;2024-01-10T11:29:40;13.15;;;6.28;;
13493;SDS011;6819;50.886;4.332;2024-01-10T11:32:06;13.95;;;6.30;;
13493;SDS011;6819;50.886;4.332;2024-01-10T11:34:35;14.35;;;5.82;;
13493;SDS011;6819;50.886;4.332;2024-01-10T11:37:11;11.55;;;5.70;;
13493;SDS011;6819;50.886;4.332;2024-01-10T11:39:40;17.13;;;6.47;;
13493;SDS011;6819;50.886;4.332;2024-01-10T11:42:07;13.38;;;6.03;;
13493;SDS011;6819;50.886;4.332;2024-01-10T11:44:55;16.77;;;6.20;;
13493;SDS011;6819;50.886;4.332;2024-01-10T11:47:21;14.35;;;5.70;;
13493;SDS011;6819;50.886;4.332;2024-01-10T11:49:57;15.85;;;5.80;;
13493;SDS011;6819;50.886;4.332;2024-01-10T11:52:27;10.80;;;5.68;;
13493;SDS011;6819;50.886;4.332;2024-01-10T11:54:57;12.90;;;6.40;;
13493;SDS011;6819;50.886;4.332;2024-01-10T11:57:25;21.25;;;6.30;;
13493;SDS011;6819;50.886;4.332;2024-01-10T11:59:52;14.75;;;6.00;;
13493;SDS011;6819;50.886;4.332;2024-01-10T12:02:19;14.45;;;6.68;;
13493;SDS011;6819;50.886;4.332;2024-01-10T12:04:45;12.52;;;5.55;;
13493;SDS011;6819;50.886;4.332;2024-01-10T12:07:12;13.77;;;6.47;;
13493;SDS011;6819;50.886;4.332;2024-01-10T12:09:38;13.82;;;6.53;;
13493;SDS011;6819;50.886;4.332;2024-01-10T12:12:05;15.48;;;6.70;;
13493;SDS011;6819;50.886;4.332;2024-01-10T12:14:31;21.35;;;10.10;;
13493;SDS011;6819;50.886;4.332;2024-01-10T12:16:58;21.83;;;9.32;;
13493;SDS011;6819;50.886;4.332;2024-01-10T12:19:25;20.25;;;7.63;;
13493;SDS011;6819;50.886;4.332;2024-01-10T12:21:51;15.70;;;6.93;;
13493;SDS011;6819;50.886;4.332;2024-01-10T12:24:17;18.15;;;6.82;;
13493;SDS011;6819;50.886;4.332;2024-01-10T12:26:44;15.30;;;6.93;;
13493;SDS011;6819;50.886;4.332;2024-01-10T12:29:10;16.10;;;7.03;;
13493;SDS011;6819;50.886;4.332;2024-01-10T12:31:36;16.23;;;6.75;;
13493;SDS011;6819;50.886;4.332;2024-01-10T12:34:04;17.65;;;6.90;;
13493;SDS011;6819;50.886;4.332;2024-01-10T12:36:34;17.08;;;7.60;;
13493;SDS011;6819;50.886;4.332;2024-01-10T12:39:00;13.40;;;6.32;;
13493;SDS011;6819;50.886;4.332;2024-01-10T12:41:26;12.65;;;6.53;;
13493;SDS011;6819;50.886;4.332;2024-01-10T12:43:53;16.33;;;6.75;;
13493;SDS011;6819;50.886;4.332;2024-01-10T12:46:22;19.42;;;6.85;;
13493;SDS011;6819;50.886;4.332;2024-01-10T12:49:04;17.10;;;7.43;;
13493;SDS011;6819;50.886;4.332;2024-01-10T12:51:30;16.33;;;6.75;;
13493;SDS011;6819;50.886;4.332;2024-01-10T12:53:58;16.25;;;6.40;;
13493;SDS011;6819;50.886;4.332;2024-01-10T12:56:24;12.43;;;6.53;;
13493;SDS011;6819;50.886;4.332;2024-01-10T12:58:51;17.85;;;7.13;;
13493;SDS011;6819;50.886;4.332;2024-01-10T13:01:17;15.85;;;7.60;;
13493;SDS011;6819;50.886;4.332;2024-01-10T13:03:43;12.23;;;6.22;;
13493;SDS011;6819;50.886;4.332;2024-01-10T13:06:09;12.85;;;6.13;;
13493;SDS011;6819;50.886;4.332;2024-01-10T13:08:36;13.88;;;6.22;;
13493;SDS011;6819;50.886;4.332;2024-01-10T13:11:02;16.92;;;6.80;;
13493;SDS011;6819;50.886;4.332;2024-01-10T13:13:34;11.77;;;6.80;;
13493;SDS011;6819;50.886;4.332;2024-01-10T13:16:01;15.52;;;7.18;;
13493;SDS011;6819;50.886;4.332;2024-01-10T13:18:27;12.23;;;5.80;;
13493;SDS011;6819;50.886;4.332;2024-01-10T13:20:54;17.70;;;7.32;;
13493;SDS011;6819;50.886;4.332;2024-01-10T13:23:20;15.60;;;6.60;;
13493;SDS011;6819;50.886;4.332;2024-01-10T13:25:50;15.98;;;6.70;;
13493;SDS011;6819;50.886;4.332;2024-01-10T13:28:16;16.10;;;7.00;;
13493;SDS011;6819;50.886;4.332;2024-01-10T13:30:42;27.23;;;8.48;;
13493;SDS011;6819;50.886;4.332;2024-01-10T13:33:09;13.88;;;6.80;;
13493;SDS011;6819;50.886;4.332;2024-01-10T13:35:35;21.02;;;7.35;;
13493;SDS011;6819;50.886;4.332;2024-01-10T13:38:02;14.85;;;7.45;;
13493;SDS011;6819;50.886;4.332;2024-01-10T13:40:28;15.20;;;7.50;;
13493;SDS011;6819;50.886;4.332;2024-01-10T13:42:54;17.95;;;7.25;;
13493;SDS011;6819;50.886;4.332;2024-01-10T13:45:20;24.27;;;8.15;;
13493;SDS011;6819;50.886;4.332;2024-01-10T13:47:46;18.63;;;7.45;;
13493;SDS011;6819;50.886;4.332;2024-01-10T13:50:14;17.92;;;7.85;;
13493;SDS011;6819;50.886;4.332;2024-01-10T13:52:41;14.80;;;8.40;;
13493;SDS011;6819;50.886;4.332;2024-01-10T13:55:07;16.60;;;7.90;;
13493;SDS011;6819;50.886;4.332;2024-01-10T13:57:34;14.95;;;7.50;;
13493;SDS011;6819;50.886;4.332;2024-01-10T14:00:01;19.27;;;8.00;;
13493;SDS011;6819;50.886;4.332;2024-01-10T14:02:27;15.63;;;7.88;;
13493;SDS011;6819;50.886;4.332;2024-01-10T14:04:53;16.95;;;8.50;;
13493;SDS011;6819;50.886;4.332;2024-01-10T14:07:19;21.63;;;7.40;;
13493;SDS011;6819;50.886;4.332;2024-01-10T14:09:45;16.25;;;8.10;;
13493;SDS011;6819;50.886;4.332;2024-01-10T14:12:12;17.08;;;8.23;;
13493;SDS011;6819;50.886;4.332;2024-01-10T14:14:38;16.38;;;8.15;;
13493;SDS011;6819;50.886;4.332;2024-01-10T14:17:05;16.98;;;8.02;;
13493;SDS011;6819;50.886;4.332;2024-01-10T14:19:31;14.07;;;7.38;;
13493;SDS011;6819;50.886;4.332;2024-01-10T14:21:57;15.18;;;6.93;;
13493;SDS011;6819;50.886;4.332;2024-01-10T14:24:24;18.15;;;7.97;;
13493;SDS011;6819;50.886;4.332;2024-01-10T14:26:50;15.48;;;7.82;;
13493;SDS011;6819;50.886;4.332;2024-01-10T14:29:16;20.65;;;8.15;;
13493;SDS011;6819;50.886;4.332;2024-01-10T14:31:42;16.48;;;7.45;;
13493;SDS011;6819;50.886;4.332;2024-01-10T14:34:08;19.90;;;8.25;;
13493;SDS011;6819;50.886;4.332;2024-01-10T14:36:36;18.10;;;7.85;;
13493;SDS011;6819;50.886;4.332;2024-01-10T14:39:02;18.10;;;8.57;;
13493;SDS011;6819;50.886;4.332;2024-01-10T14:41:32;14.55;;;7.53;;
13493;SDS011;6819;50.886;4.332;2024-01-10T14:43:59;17.27;;;8.18;;
13493;SDS011;6819;50.886;4.332;2024-01-10T14:46:25;18.38;;;8.77;;
13493;SDS011;6819;50.886;4.332;2024-01-10T14:48:53;18.92;;;8.48;;
13493;SDS011;6819;50.886;4.332;2024-01-10T14:51:19;15.52;;;7.32;;
13493;SDS011;6819;50.886;4.332;2024-01-10T14:53:45;20.08;;;7.38;;
13493;SDS011;6819;50.886;4.332;2024-01-10T14:56:11;14.90;;;7.60;;
13493;SDS011;6819;50.886;4.332;2024-01-10T14:58:37;18.60;;;7.20;;
13493;SDS011;6819;50.886;4.332;2024-01-10T15:01:07;14.48;;;8.45;;
13493;SDS011;6819;50.886;4.332;2024-01-10T15:03:33;19.38;;;7.90;;
13493;SDS011;6819;50.886;4.332;2024-01-10T15:05:59;21.25;;;7.53;;